createdAt,value
2023-02-22T00:01:36.032Z,6.20
2023-02-22T00:04:05.192Z,4.97
2023-02-22T00:06:33.015Z,5.40
2023-02-22T00:09:02.314Z,6.18
2023-02-22T00:11:29.042Z,6.78
2023-02-22T00:13:58.706Z,5.95
2023-02-22T00:16:26.475Z,4.68
2023-02-22T00:18:53.549Z,5.72
2023-02-22T00:21:20.927Z,3.60
2023-02-22T00:23:49.013Z,6.90
2023-02-22T00:26:19.035Z,4.85
2023-02-22T00:28:52.350Z,4.47
2023-02-22T00:31:20.302Z,5.32
2023-02-22T00:33:47.208Z,6.05
2023-02-22T00:36:14.577Z,6.50
2023-02-22T00:38:42.092Z,4.65
2023-02-22T00:41:09.551Z,3.70
2023-02-22T00:43:36.311Z,3.40
2023-02-22T00:46:03.719Z,5.05
2023-02-22T00:48:30.630Z,6.53
2023-02-22T00:50:57.493Z,6.75
2023-02-22T00:53:25.964Z,3.88
2023-02-22T00:55:53.289Z,3.72
2023-02-22T00:58:20.122Z,5.10
2023-02-22T01:00:47.365Z,7.25
2023-02-22T01:03:16.876Z,3.85
2023-02-22T01:05:44.216Z,4.80
2023-02-22T01:08:12.989Z,3.90
2023-02-22T01:10:40.536Z,4.15
2023-02-22T01:13:12.555Z,8.07
2023-02-22T01:15:42.183Z,4.20
2023-02-22T01:18:09.262Z,3.90
2023-02-22T01:20:36.858Z,3.50
2023-02-22T01:23:07.681Z,4.30
2023-02-22T01:25:35.795Z,5.10
2023-02-22T01:28:04.657Z,5.80
2023-02-22T01:30:34.462Z,5.00
2023-02-22T01:33:02.807Z,6.40
2023-02-22T01:35:32.857Z,5.60
2023-02-22T01:37:59.660Z,6.22
2023-02-22T01:40:29.943Z,6.43
2023-02-22T01:42:59.766Z,5.13
2023-02-22T01:45:32.824Z,4.78
2023-02-22T01:48:29.964Z,5.20
2023-02-22T01:51:12.560Z,6.28
2023-02-22T01:54:04.465Z,5.90
2023-02-22T01:56:34.679Z,3.97
2023-02-22T01:59:09.696Z,3.65
2023-02-22T02:01:39.330Z,5.38
2023-02-22T02:04:10.100Z,5.97
2023-02-22T02:06:37.623Z,4.47
2023-02-22T02:09:36.477Z,6.43
2023-02-22T02:12:05.204Z,4.60
2023-02-22T02:14:32.741Z,5.82
2023-02-22T02:17:03.365Z,5.13
2023-02-22T02:19:50.900Z,6.60
2023-02-22T02:22:44.117Z,4.35
2023-02-22T02:25:19.416Z,7.82
2023-02-22T02:27:55.725Z,4.75
2023-02-22T02:30:40.739Z,4.00
2023-02-22T02:33:16.424Z,6.10
2023-02-22T02:35:59.032Z,5.57
2023-02-22T02:38:57.944Z,5.78
2023-02-22T02:41:29.295Z,4.18
2023-02-22T02:44:13.097Z,8.60
2023-02-22T02:47:02.108Z,4.82
2023-02-22T02:49:54.477Z,3.63
2023-02-22T02:52:26.954Z,6.35
2023-02-22T02:54:55.573Z,5.80
2023-02-22T02:57:22.243Z,5.70
2023-02-22T02:59:48.910Z,4.07
2023-02-22T03:02:36.760Z,5.20
2023-02-22T03:05:28.143Z,3.50
2023-02-22T03:08:14.056Z,5.10
2023-02-22T03:10:50.348Z,3.85
2023-02-22T03:13:24.792Z,4.10
2023-02-22T03:16:05.731Z,5.53
2023-02-22T03:18:52.678Z,8.70
2023-02-22T03:21:25.543Z,3.28
2023-02-22T03:24:07.435Z,9.07
2023-02-22T03:26:41.621Z,5.65
2023-02-22T03:29:11.120Z,4.68
2023-02-22T03:31:48.637Z,6.80
2023-02-22T03:34:26.200Z,3.53
2023-02-22T03:36:59.708Z,4.35
2023-02-22T03:39:31.129Z,5.53
2023-02-22T03:42:03.551Z,4.80
2023-02-22T03:44:32.994Z,5.55
2023-02-22T03:47:05.719Z,3.45
2023-02-22T03:49:32.364Z,3.55
2023-02-22T03:52:01.080Z,5.70
2023-02-22T03:54:28.744Z,9.50
2023-02-22T03:57:05.180Z,4.90
2023-02-22T03:59:32.336Z,6.05
2023-02-22T04:01:59.074Z,2.92
2023-02-22T04:04:26.366Z,3.35
2023-02-22T04:06:53.277Z,3.75
2023-02-22T04:09:20.118Z,4.65
2023-02-22T04:11:46.975Z,4.50
2023-02-22T04:14:13.914Z,4.53
2023-02-22T04:16:40.808Z,6.32
2023-02-22T04:19:07.580Z,9.40
2023-02-22T04:21:34.302Z,4.57
2023-02-22T04:24:01.015Z,5.15
2023-02-22T04:26:28.003Z,3.40
2023-02-22T04:28:54.726Z,4.88
2023-02-22T04:31:21.485Z,4.30
2023-02-22T04:33:48.280Z,5.25
2023-02-22T04:36:16.130Z,5.57
2023-02-22T04:38:43.832Z,6.68
2023-02-22T04:41:11.375Z,4.68
2023-02-22T04:43:38.174Z,4.78
2023-02-22T04:46:05.278Z,6.20
2023-02-22T04:48:32.041Z,4.00
2023-02-22T04:50:58.917Z,4.53
2023-02-22T04:53:25.800Z,6.45
2023-02-22T04:55:52.546Z,5.85
2023-02-22T04:58:19.482Z,4.95
2023-02-22T05:00:46.210Z,7.60
2023-02-22T05:03:12.915Z,4.95
2023-02-22T05:05:39.619Z,4.78
2023-02-22T05:08:06.399Z,3.55
2023-02-22T05:10:33.563Z,7.55
2023-02-22T05:13:00.298Z,7.55
2023-02-22T05:15:27.200Z,7.70
2023-02-22T05:17:54.084Z,11.40
2023-02-22T05:20:30.317Z,8.65
2023-02-22T05:22:59.004Z,13.35
2023-02-22T05:25:27.073Z,9.63
2023-02-22T05:27:59.039Z,11.38
2023-02-22T05:30:30.060Z,11.57
2023-02-22T05:32:57.044Z,10.82
2023-02-22T05:35:24.037Z,9.00
2023-02-22T05:37:51.297Z,6.07
2023-02-22T05:40:22.750Z,9.88
2023-02-22T05:42:50.884Z,9.65
2023-02-22T05:45:19.903Z,4.55
2023-02-22T05:47:47.295Z,13.95
2023-02-22T05:50:14.855Z,6.95
2023-02-22T05:52:41.958Z,7.00
2023-02-22T05:55:11.356Z,9.95
2023-02-22T05:57:38.068Z,6.38
2023-02-22T06:00:08.681Z,6.47
2023-02-22T06:02:35.413Z,6.95
2023-02-22T06:05:02.149Z,3.45
2023-02-22T06:07:28.903Z,9.25
2023-02-22T06:09:55.571Z,4.60
2023-02-22T06:12:22.318Z,11.70
2023-02-22T06:14:49.043Z,5.43
2023-02-22T06:17:18.857Z,7.70
2023-02-22T06:19:46.457Z,4.22
2023-02-22T06:22:18.242Z,5.18
2023-02-22T06:24:45.083Z,9.43
2023-02-22T06:27:11.922Z,6.10
2023-02-22T06:29:38.854Z,4.50
2023-02-22T06:32:05.767Z,6.20
2023-02-22T06:34:32.496Z,8.52
2023-02-22T06:37:00.634Z,4.82
2023-02-22T06:39:27.724Z,6.57
2023-02-22T06:41:56.428Z,4.32
2023-02-22T06:44:23.476Z,6.30
2023-02-22T06:46:51.258Z,8.05
2023-02-22T06:49:20.430Z,12.90
2023-02-22T06:51:47.822Z,6.25
2023-02-22T06:54:14.874Z,8.52
2023-02-22T06:56:41.614Z,7.28
2023-02-22T06:59:08.593Z,10.88
2023-02-22T07:01:35.666Z,8.95
2023-02-22T07:04:02.489Z,11.27
2023-02-22T07:06:29.250Z,5.78
2023-02-22T07:08:56.050Z,7.60
2023-02-22T07:11:22.915Z,12.05
2023-02-22T07:13:49.681Z,10.50
2023-02-22T07:16:16.751Z,7.18
2023-02-22T07:18:43.489Z,6.72
2023-02-22T07:21:10.737Z,9.55
2023-02-22T07:23:38.133Z,9.27
2023-02-22T07:26:05.503Z,8.32
2023-02-22T07:28:32.480Z,11.23
2023-02-22T07:30:59.276Z,12.07
2023-02-22T07:33:26.838Z,20.33
2023-02-22T07:35:53.712Z,16.48
2023-02-22T07:38:21.108Z,14.45
2023-02-22T07:40:48.064Z,15.13
2023-02-22T07:43:22.541Z,15.27
2023-02-22T07:45:51.799Z,17.05
2023-02-22T07:48:20.018Z,17.50
2023-02-22T07:50:47.162Z,12.13
2023-02-22T07:53:18.111Z,16.55
2023-02-22T07:55:45.042Z,9.27
2023-02-22T07:58:15.571Z,12.82
2023-02-22T08:00:44.224Z,11.70
2023-02-22T08:03:13.465Z,16.23
2023-02-22T08:05:42.865Z,15.70
2023-02-22T08:08:09.553Z,15.02
2023-02-22T08:10:36.462Z,12.70
2023-02-22T08:13:04.677Z,16.45
2023-02-22T08:15:34.907Z,12.05
2023-02-22T08:18:03.600Z,18.33
2023-02-22T08:20:30.877Z,10.98
2023-02-22T08:22:58.577Z,9.75
2023-02-22T08:25:27.557Z,10.85
2023-02-22T08:28:01.201Z,16.27
2023-02-22T08:30:30.559Z,7.18
2023-02-22T08:32:58.390Z,10.65
2023-02-22T08:35:27.409Z,22.42
2023-02-22T08:37:57.059Z,14.82
2023-02-22T08:40:25.527Z,16.83
2023-02-22T08:42:52.533Z,10.15
2023-02-22T08:45:19.884Z,14.23
2023-02-22T08:47:46.897Z,11.40
2023-02-22T08:50:25.424Z,12.47
2023-02-22T08:52:54.214Z,11.40
2023-02-22T08:55:25.760Z,11.63
2023-02-22T08:57:52.584Z,16.23
2023-02-22T09:00:21.045Z,16.50
2023-02-22T09:02:47.833Z,14.93
2023-02-22T09:05:17.067Z,14.40
2023-02-22T09:07:44.752Z,17.63
2023-02-22T09:10:20.417Z,13.77
2023-02-22T09:12:47.222Z,10.23
2023-02-22T09:15:15.343Z,11.70
2023-02-22T09:17:42.164Z,14.83
2023-02-22T09:20:11.855Z,10.83
2023-02-22T09:22:39.185Z,16.07
2023-02-22T09:25:16.199Z,12.93
2023-02-22T09:27:44.285Z,13.17
2023-02-22T09:30:32.696Z,12.53
2023-02-22T09:33:11.374Z,11.27
2023-02-22T09:35:42.476Z,9.50
2023-02-22T09:38:10.452Z,9.57
2023-02-22T09:40:45.104Z,8.23
2023-02-22T09:43:35.627Z,11.53
2023-02-22T09:46:19.382Z,10.53
2023-02-22T09:49:16.911Z,13.00
2023-02-22T09:52:00.711Z,9.00
2023-02-22T09:54:34.601Z,12.10
2023-02-22T09:57:05.616Z,13.20
2023-02-22T09:59:40.246Z,10.97
2023-02-22T10:02:34.609Z,14.53
2023-02-22T10:05:25.153Z,8.30
2023-02-22T10:08:08.184Z,6.90
2023-02-22T10:10:41.136Z,10.83
2023-02-22T10:13:28.221Z,6.90
2023-02-22T10:15:59.717Z,5.10
2023-02-22T10:18:35.516Z,5.17
2023-02-22T10:21:16.280Z,7.93
2023-02-22T10:23:54.884Z,10.23
2023-02-22T10:26:26.689Z,4.70
2023-02-22T10:29:01.168Z,11.83
2023-02-22T10:31:34.856Z,6.43
2023-02-22T10:34:12.528Z,5.00
2023-02-22T10:36:39.354Z,5.03
2023-02-22T10:39:36.728Z,4.30
2023-02-22T10:42:09.333Z,6.10
2023-02-22T10:44:37.644Z,9.70
2023-02-22T10:47:07.714Z,7.70
2023-02-22T10:49:48.822Z,4.70
2023-02-22T10:52:28.168Z,5.87
2023-02-22T10:55:13.780Z,6.10
2023-02-22T10:57:44.460Z,3.50
2023-02-22T11:00:29.669Z,7.57
2023-02-22T11:02:59.328Z,4.70
2023-02-22T11:05:37.942Z,4.13
2023-02-22T11:08:28.197Z,4.47
2023-02-22T11:10:57.905Z,5.30
2023-02-22T11:13:30.048Z,3.27
2023-02-22T11:16:03.248Z,2.60
2023-02-22T11:18:35.559Z,4.13
2023-02-22T11:21:11.628Z,12.63
2023-02-22T11:23:44.640Z,5.27
2023-02-22T11:26:16.351Z,5.80
2023-02-22T11:28:49.291Z,3.90
2023-02-22T11:31:22.353Z,6.43
2023-02-22T11:36:40.958Z,4.37
2023-02-22T11:39:21.964Z,4.30
2023-02-22T11:41:51.497Z,3.53
2023-02-22T11:44:26.527Z,5.97
2023-02-22T11:46:56.380Z,7.60
2023-02-22T11:49:35.304Z,8.73
2023-02-22T11:52:23.936Z,4.03
2023-02-22T11:55:10.125Z,4.70
2023-02-22T11:58:04.529Z,4.53
2023-02-22T12:00:55.903Z,6.93
2023-02-22T12:03:40.133Z,6.07
2023-02-22T12:06:15.595Z,4.60
2023-02-22T12:09:00.208Z,6.27
2023-02-22T12:11:40.748Z,10.50
2023-02-22T12:14:26.371Z,7.60
2023-02-22T12:17:08.638Z,12.03
2023-02-22T12:20:07.307Z,7.97
2023-02-22T12:22:39.068Z,6.77
2023-02-22T12:25:19.522Z,6.23
2023-02-22T12:27:55.706Z,6.60
2023-02-22T12:30:30.695Z,8.57
2023-02-22T12:33:06.367Z,9.40
2023-02-22T12:35:39.702Z,9.37
2023-02-22T12:38:23.044Z,8.50
2023-02-22T12:41:03.929Z,9.40
2023-02-22T12:43:46.326Z,12.60
2023-02-22T12:46:13.085Z,9.57
2023-02-22T12:48:42.868Z,7.50
2023-02-22T12:51:23.938Z,11.17
2023-02-22T12:54:18.597Z,8.20
2023-02-22T12:57:01.116Z,7.97
2023-02-22T12:59:33.945Z,8.40
2023-02-22T13:02:24.102Z,6.17
2023-02-22T13:04:50.860Z,6.77
2023-02-22T13:07:39.214Z,7.70
2023-02-22T13:10:23.321Z,13.07
2023-02-22T13:13:04.875Z,11.20
2023-02-22T13:15:49.906Z,11.40
2023-02-22T13:18:39.152Z,16.20
2023-02-22T13:21:36.168Z,19.10
2023-02-22T13:24:13.548Z,9.87
2023-02-22T13:26:48.391Z,14.90
2023-02-22T13:29:28.731Z,10.80
2023-02-22T13:32:14.208Z,13.90
2023-02-22T13:35:25.835Z,12.07
2023-02-22T13:38:16.820Z,13.67
2023-02-22T13:40:49.604Z,15.20
2023-02-22T13:43:43.731Z,9.37
2023-02-22T13:46:33.335Z,12.30
2023-02-22T13:49:21.330Z,14.23
2023-02-22T13:51:53.026Z,12.80
2023-02-22T13:54:29.726Z,10.30
2023-02-22T13:56:57.695Z,11.10
2023-02-22T13:59:29.463Z,18.00
2023-02-22T14:01:57.451Z,13.07
2023-02-22T14:04:26.977Z,14.77
2023-02-22T14:06:54.438Z,20.20
2023-02-22T14:09:47.149Z,15.70
2023-02-22T14:12:36.780Z,17.13
2023-02-22T14:15:18.689Z,15.10
2023-02-22T14:17:57.319Z,17.80
2023-02-22T14:20:38.200Z,20.03
2023-02-22T14:23:43.297Z,15.07
2023-02-22T14:26:34.498Z,23.10
2023-02-22T14:29:09.244Z,14.07
2023-02-22T14:31:44.913Z,20.60
2023-02-22T14:34:20.093Z,19.60
2023-02-22T14:37:07.704Z,17.13
2023-02-22T14:39:57.139Z,26.23
2023-02-22T14:42:36.338Z,19.33
2023-02-22T14:45:23.189Z,21.80
2023-02-22T14:48:03.858Z,19.93
2023-02-22T14:51:01.997Z,19.40
2023-02-22T14:53:40.167Z,14.73
2023-02-22T14:56:29.946Z,17.57
2023-02-22T14:59:08.001Z,19.00
2023-02-22T15:01:49.109Z,23.73
2023-02-22T15:04:26.553Z,18.80
2023-02-22T15:06:55.612Z,15.90
2023-02-22T15:09:28.768Z,17.60
2023-02-22T15:12:05.427Z,16.10
2023-02-22T15:14:37.988Z,18.80
2023-02-22T15:17:10.379Z,17.47
2023-02-22T15:19:40.188Z,17.57
2023-02-22T15:22:22.505Z,20.33
2023-02-22T15:25:05.333Z,18.30
2023-02-22T15:27:36.879Z,23.00
2023-02-22T15:30:26.605Z,26.37
2023-02-22T15:33:04.967Z,16.60
2023-02-22T15:35:33.633Z,16.47
2023-02-22T15:38:12.167Z,14.53
2023-02-22T15:40:43.154Z,17.87
2023-02-22T15:43:19.199Z,26.50
2023-02-22T15:45:46.571Z,23.27
2023-02-22T15:48:15.819Z,20.07
2023-02-22T15:51:04.154Z,21.60
2023-02-22T15:53:39.942Z,17.23
2023-02-22T15:56:12.402Z,17.53
2023-02-22T15:58:40.085Z,21.30
2023-02-22T16:01:12.360Z,22.00
2023-02-22T16:03:45.675Z,16.33
2023-02-22T16:06:28.827Z,28.53
2023-02-22T16:08:58.843Z,15.03
2023-02-22T16:11:33.114Z,17.67
2023-02-22T16:14:05.643Z,16.00
2023-02-22T16:16:35.454Z,22.77
2023-02-22T16:19:31.405Z,19.90
2023-02-22T16:22:03.038Z,26.63
2023-02-22T16:24:35.802Z,22.73
2023-02-22T16:27:15.817Z,24.33
2023-02-22T16:29:42.880Z,16.07
2023-02-22T16:32:10.410Z,16.00
2023-02-22T16:34:37.691Z,16.67
2023-02-22T16:37:04.490Z,20.43
2023-02-22T16:39:34.714Z,15.17
2023-02-22T16:42:03.859Z,19.93
2023-02-22T16:44:30.770Z,24.10
2023-02-22T16:47:00.502Z,20.63
2023-02-22T16:49:27.450Z,23.03
2023-02-22T16:52:06.626Z,16.73
2023-02-22T16:54:36.775Z,19.90
2023-02-22T16:57:04.669Z,38.63
2023-02-22T16:59:39.594Z,30.67
2023-02-22T17:02:07.632Z,16.87
2023-02-22T17:04:34.849Z,18.20
2023-02-22T17:07:05.034Z,20.63
2023-02-22T17:09:32.859Z,17.00
2023-02-22T17:11:59.936Z,14.87
2023-02-22T17:14:33.618Z,13.00
2023-02-22T17:17:00.409Z,14.87
2023-02-22T17:19:27.609Z,12.20
2023-02-22T17:21:54.393Z,15.73
2023-02-22T17:24:24.416Z,21.10
2023-02-22T17:26:53.073Z,13.40
2023-02-22T17:29:20.688Z,14.30
2023-02-22T17:31:48.915Z,19.40
2023-02-22T17:34:15.988Z,16.20
2023-02-22T17:36:43.083Z,15.10
2023-02-22T17:39:10.649Z,13.77
2023-02-22T17:41:40.297Z,12.67
2023-02-22T17:44:07.762Z,19.90
2023-02-22T17:46:36.167Z,23.83
2023-02-22T17:49:03.330Z,20.60
2023-02-22T17:51:30.177Z,18.40
2023-02-22T17:53:57.000Z,19.27
2023-02-22T17:56:23.883Z,18.67
2023-02-22T17:58:54.032Z,19.23
2023-02-22T18:01:27.174Z,22.17
2023-02-22T18:03:55.845Z,14.63
2023-02-22T18:06:25.328Z,19.37
2023-02-22T18:08:56.495Z,18.63
2023-02-22T18:11:26.516Z,18.83
2023-02-22T18:13:57.707Z,19.60
2023-02-22T18:16:28.279Z,15.50
2023-02-22T18:18:56.496Z,12.07
2023-02-22T18:21:24.148Z,15.10
2023-02-22T18:23:50.874Z,12.70
2023-02-22T18:26:19.827Z,9.83
2023-02-22T18:28:50.137Z,16.50
2023-02-22T18:31:19.340Z,16.57
2023-02-22T18:33:49.301Z,10.30
2023-02-22T18:36:17.591Z,12.83
2023-02-22T18:38:44.759Z,10.90
2023-02-22T18:41:16.962Z,9.63
2023-02-22T18:43:46.338Z,14.50
2023-02-22T18:46:18.154Z,10.87
2023-02-22T18:48:46.910Z,9.87
2023-02-22T18:51:16.096Z,15.50
2023-02-22T18:53:47.924Z,22.93
2023-02-22T18:56:17.868Z,16.10
2023-02-22T18:58:45.057Z,9.97
2023-02-22T19:01:17.620Z,9.90
2023-02-22T19:03:47.143Z,8.60
2023-02-22T19:06:14.682Z,15.20
2023-02-22T19:08:42.733Z,19.40
2023-02-22T19:11:12.326Z,15.90
2023-02-22T19:13:39.105Z,12.27
2023-02-22T19:16:07.515Z,15.33
2023-02-22T19:18:34.538Z,13.03
2023-02-22T19:21:03.309Z,14.50
2023-02-22T19:23:34.366Z,10.17
2023-02-22T19:26:02.825Z,9.33
2023-02-22T19:28:34.070Z,11.40
2023-02-22T19:31:14.141Z,15.87
2023-02-22T19:33:41.555Z,14.73
2023-02-22T19:36:09.800Z,9.57
2023-02-22T19:38:36.964Z,10.83
2023-02-22T19:41:12.575Z,10.43
2023-02-22T19:43:39.558Z,12.33
2023-02-22T19:46:07.403Z,12.00
2023-02-22T19:48:34.994Z,14.53
2023-02-22T19:51:12.846Z,13.40
2023-02-22T19:53:40.915Z,26.43
2023-02-22T19:56:26.918Z,10.30
2023-02-22T19:58:56.023Z,10.67
2023-02-22T20:01:25.387Z,11.60
2023-02-22T20:03:59.821Z,12.67
2023-02-22T20:06:29.610Z,13.00
2023-02-22T20:08:57.305Z,11.33
2023-02-22T20:11:25.081Z,16.03
2023-02-22T20:13:51.966Z,11.17
2023-02-22T20:16:18.714Z,13.00
2023-02-22T20:18:47.570Z,12.90
2023-02-22T20:21:25.960Z,17.83
2023-02-22T20:23:57.026Z,13.67
2023-02-22T20:26:25.439Z,16.10
2023-02-22T20:28:53.332Z,16.60
2023-02-22T20:31:21.648Z,19.10
2023-02-22T20:33:53.106Z,22.00
2023-02-22T20:36:22.216Z,16.03
2023-02-22T20:38:51.480Z,13.30
2023-02-22T20:41:46.170Z,14.60
2023-02-22T20:44:14.960Z,9.40
2023-02-22T20:46:41.840Z,14.83
2023-02-22T20:49:11.266Z,14.70
2023-02-22T20:51:41.870Z,11.73
2023-02-22T20:54:11.567Z,14.10
2023-02-22T20:56:43.655Z,14.80
2023-02-22T20:59:15.855Z,14.10
2023-02-22T21:01:43.173Z,16.03
2023-02-22T21:04:10.660Z,15.73
2023-02-22T21:06:38.932Z,17.77
2023-02-22T21:09:08.816Z,17.50
2023-02-22T21:11:36.031Z,16.93
2023-02-22T21:14:03.567Z,17.93
2023-02-22T21:16:33.838Z,13.80
2023-02-22T21:19:03.042Z,17.10
2023-02-22T21:21:30.873Z,17.17
2023-02-22T21:24:01.952Z,18.30
2023-02-22T21:26:31.978Z,27.50
2023-02-22T21:29:01.024Z,24.20
2023-02-22T21:31:28.191Z,22.30
2023-02-22T21:33:57.033Z,14.30
2023-02-22T21:36:27.387Z,11.77
2023-02-22T21:38:59.958Z,22.83
2023-02-22T21:41:29.420Z,15.70
2023-02-22T21:43:57.904Z,23.13
2023-02-22T21:46:26.082Z,25.10
2023-02-22T21:48:52.845Z,17.60
2023-02-22T21:51:23.314Z,19.47
2023-02-22T21:53:52.372Z,16.03
2023-02-22T21:56:23.785Z,16.30
2023-02-22T21:58:59.539Z,13.77
2023-02-22T22:01:31.945Z,20.13
2023-02-22T22:04:00.175Z,16.80
2023-02-22T22:06:29.269Z,17.30
2023-02-22T22:08:57.189Z,20.90
2023-02-22T22:11:25.188Z,17.27
2023-02-22T22:13:57.559Z,17.47
2023-02-22T22:16:27.225Z,18.00
2023-02-22T22:18:54.901Z,24.20
2023-02-22T22:21:23.549Z,20.63
2023-02-22T22:23:54.290Z,24.43
2023-02-22T22:26:24.544Z,20.67
2023-02-22T22:28:56.084Z,24.03
2023-02-22T22:31:24.788Z,19.83
2023-02-22T22:33:52.297Z,19.43
2023-02-22T22:36:21.533Z,22.10
2023-02-22T22:38:48.823Z,17.13
2023-02-22T22:41:17.893Z,20.40
2023-02-22T22:43:48.188Z,20.17
2023-02-22T22:46:17.068Z,21.53
2023-02-22T22:48:46.914Z,15.63
2023-02-22T22:51:20.661Z,17.87
2023-02-22T22:53:49.127Z,18.90
2023-02-22T22:56:26.750Z,23.37
2023-02-22T22:58:56.574Z,26.00
2023-02-22T23:01:27.953Z,25.33
2023-02-22T23:04:02.156Z,24.53
2023-02-22T23:06:34.492Z,22.30
2023-02-22T23:09:11.364Z,22.00
2023-02-22T23:11:45.246Z,18.20
2023-02-22T23:14:24.080Z,17.97
2023-02-22T23:17:03.052Z,23.13
2023-02-22T23:19:35.733Z,18.77
2023-02-22T23:22:05.323Z,20.00
2023-02-22T23:24:36.141Z,17.07
2023-02-22T23:27:07.237Z,27.57
2023-02-22T23:29:37.987Z,19.57
2023-02-22T23:32:08.911Z,13.07
2023-02-22T23:34:41.058Z,23.00
2023-02-22T23:37:10.335Z,19.63
2023-02-22T23:39:37.283Z,16.80
2023-02-22T23:42:04.188Z,16.53
2023-02-22T23:44:31.088Z,19.93
2023-02-22T23:46:57.945Z,20.20
2023-02-22T23:49:37.866Z,19.37
2023-02-22T23:52:06.411Z,20.80
2023-02-22T23:54:36.440Z,20.53
2023-02-22T23:57:05.376Z,18.43
2023-02-22T23:59:33.305Z,18.23
